Plainfield, NJ

3:19 PM EST on November 24, 2014 (GMT -0500)
Newark International | Change Station
CLOSE
Current Station
Airport
Location: Newark,
Elevation: 30 ft
Nearby Weather Stations

Elev 30 ft 40.68 °N, 74.17 °W | Updated 28 minutes ago

Partly Cloudy
Partly Cloudy
74 °F
Feels Like 74 °F
N
22
Wind Variable Wind from SSW
Gusts 28 mph

Today
High -- | Low -- °F
--% Chance of Precip.
Yesterday
High -- | Low -- °F
Precip. -- in
6:54 AM 4:33 PM
Waxing Crescent, 7% visible
Pressure 29.57 in
Visibility 10.0 miles
Clouds Scattered Clouds 4000 ft
Dew Point 56 °F
Humidity 53%
Rainfall 0.36 in
Snow Depth Not available.
UV 1 out of 12
Pollen .10 out of 12
Air Quality Not available.
Flu Activity Not available.
METAR KEWR 241951Z 21019G24KT 10SM SCT040 23/13 A2957 RMK AO2 PK WND 21028/1852 SLP011 T02330133 $

More Conditions Fewer Conditions

Pressure 29.57 in
Visibility 10.0 miles
Clouds Scattered Clouds 4000 ft
Dew Point 56 °F
Humidity 53%
Rainfall 0.36 in
Snow Depth Not available.
UV 1 out of 12
Pollen .10 out of 12
Air Quality Not available.
Flu Activity Not available.
METAR KEWR 241951Z 21019G24KT 10SM SCT040 23/13 A2957 RMK AO2 PK WND 21028/1852 SLP011 T02330133 $

More Conditions Fewer Conditions

10-Day Weather Forecast

Almanac

Astronomy

Nov. 24, 2014 Rise Set
Actual Time
Civil Twilight
Nautical Twilight
Astronomical Twilight
Moon
Length of Visible Light
Length of Day
Tomorrow will be .
, % of the Moon is Illuminated

Today's Extremes

State Highs State Lows

Community

WunderPhotos

Upload Photos

1,773,403 photos uploaded!

WunderBlogs® & News

Nearby

Air Quality

  Air Quality AQ Index Pollutant
Not available.

Snow Depth

Station Depth Elevation

Earthquake Activity

City Distance Mag. Time & Date
Minimum magnitude displayed is 2.5.

Coastal Water Temperatures

Place Temperature

Nearby Weather Stations